sensor_id;sensor_type;location;lat;lon;timestamp;P1;durP1;ratioP1;P2;durP2;ratioP2
6999;SDS011;3540;53.242;10.408;2024-01-30T00:01:35;10.80;;;5.93;;
6999;SDS011;3540;53.242;10.408;2024-01-30T00:04:01;10.20;;;5.93;;
6999;SDS011;3540;53.242;10.408;2024-01-30T00:06:27;7.93;;;6.27;;
6999;SDS011;3540;53.242;10.408;2024-01-30T00:08:52;10.63;;;6.07;;
6999;SDS011;3540;53.242;10.408;2024-01-30T00:11:18;11.00;;;6.13;;
6999;SDS011;3540;53.242;10.408;2024-01-30T00:13:44;8.30;;;5.70;;
6999;SDS011;3540;53.242;10.408;2024-01-30T00:16:19;8.63;;;6.00;;
6999;SDS011;3540;53.242;10.408;2024-01-30T00:18:49;13.83;;;6.40;;
6999;SDS011;3540;53.242;10.408;2024-01-30T00:21:15;9.97;;;6.07;;
6999;SDS011;3540;53.242;10.408;2024-01-30T00:23:41;10.60;;;6.23;;
6999;SDS011;3540;53.242;10.408;2024-01-30T00:26:07;12.63;;;6.43;;
6999;SDS011;3540;53.242;10.408;2024-01-30T00:28:32;9.23;;;6.17;;
6999;SDS011;3540;53.242;10.408;2024-01-30T00:30:58;9.07;;;5.93;;
6999;SDS011;3540;53.242;10.408;2024-01-30T00:33:23;11.00;;;6.00;;
6999;SDS011;3540;53.242;10.408;2024-01-30T00:35:49;8.13;;;5.70;;
6999;SDS011;3540;53.242;10.408;2024-01-30T00:38:15;10.27;;;6.43;;
6999;SDS011;3540;53.242;10.408;2024-01-30T00:40:40;8.60;;;6.13;;
6999;SDS011;3540;53.242;10.408;2024-01-30T00:43:06;9.13;;;6.20;;
6999;SDS011;3540;53.242;10.408;2024-01-30T00:45:32;9.07;;;6.47;;
6999;SDS011;3540;53.242;10.408;2024-01-30T00:47:57;9.70;;;6.10;;
6999;SDS011;3540;53.242;10.408;2024-01-30T00:50:23;11.40;;;7.37;;
6999;SDS011;3540;53.242;10.408;2024-01-30T00:52:49;10.53;;;6.70;;
6999;SDS011;3540;53.242;10.408;2024-01-30T00:55:14;12.60;;;6.47;;
6999;SDS011;3540;53.242;10.408;2024-01-30T00:57:40;9.93;;;5.93;;
6999;SDS011;3540;53.242;10.408;2024-01-30T01:00:06;10.27;;;6.30;;
6999;SDS011;3540;53.242;10.408;2024-01-30T01:02:34;8.20;;;6.00;;
6999;SDS011;3540;53.242;10.408;2024-01-30T01:05:00;9.70;;;6.00;;
6999;SDS011;3540;53.242;10.408;2024-01-30T01:07:25;11.00;;;6.47;;
6999;SDS011;3540;53.242;10.408;2024-01-30T01:09:51;12.37;;;6.30;;
6999;SDS011;3540;53.242;10.408;2024-01-30T01:12:16;11.30;;;6.40;;
6999;SDS011;3540;53.242;10.408;2024-01-30T01:14:42;9.17;;;6.23;;
6999;SDS011;3540;53.242;10.408;2024-01-30T01:17:08;10.83;;;6.30;;
6999;SDS011;3540;53.242;10.408;2024-01-30T01:19:33;10.73;;;6.00;;
6999;SDS011;3540;53.242;10.408;2024-01-30T01:21:59;10.67;;;6.33;;
6999;SDS011;3540;53.242;10.408;2024-01-30T01:24:25;9.37;;;6.37;;
6999;SDS011;3540;53.242;10.408;2024-01-30T01:26:50;9.70;;;5.93;;
6999;SDS011;3540;53.242;10.408;2024-01-30T01:29:16;10.20;;;6.47;;
6999;SDS011;3540;53.242;10.408;2024-01-30T01:31:41;12.60;;;7.60;;
6999;SDS011;3540;53.242;10.408;2024-01-30T01:34:09;11.97;;;6.40;;
6999;SDS011;3540;53.242;10.408;2024-01-30T01:36:35;9.77;;;5.83;;
6999;SDS011;3540;53.242;10.408;2024-01-30T01:39:01;9.90;;;5.80;;
6999;SDS011;3540;53.242;10.408;2024-01-30T01:41:31;8.90;;;5.90;;
6999;SDS011;3540;53.242;10.408;2024-01-30T01:43:58;9.97;;;6.13;;
6999;SDS011;3540;53.242;10.408;2024-01-30T01:46:27;10.23;;;6.30;;
6999;SDS011;3540;53.242;10.408;2024-01-30T01:48:57;9.03;;;6.00;;
6999;SDS011;3540;53.242;10.408;2024-01-30T01:51:24;10.90;;;5.70;;
6999;SDS011;3540;53.242;10.408;2024-01-30T01:53:56;10.07;;;6.73;;
6999;SDS011;3540;53.242;10.408;2024-01-30T01:56:23;8.17;;;6.30;;
6999;SDS011;3540;53.242;10.408;2024-01-30T01:58:49;15.30;;;9.37;;
6999;SDS011;3540;53.242;10.408;2024-01-30T02:01:16;11.97;;;7.97;;
6999;SDS011;3540;53.242;10.408;2024-01-30T02:03:45;9.73;;;6.80;;
6999;SDS011;3540;53.242;10.408;2024-01-30T02:06:11;10.80;;;6.60;;
6999;SDS011;3540;53.242;10.408;2024-01-30T02:08:41;9.93;;;6.37;;
6999;SDS011;3540;53.242;10.408;2024-01-30T02:11:07;9.87;;;6.70;;
6999;SDS011;3540;53.242;10.408;2024-01-30T02:13:33;10.07;;;6.53;;
6999;SDS011;3540;53.242;10.408;2024-01-30T02:15:59;9.87;;;6.07;;
6999;SDS011;3540;53.242;10.408;2024-01-30T02:18:26;9.13;;;6.33;;
6999;SDS011;3540;53.242;10.408;2024-01-30T02:20:53;9.33;;;6.40;;
6999;SDS011;3540;53.242;10.408;2024-01-30T02:23:19;8.17;;;6.03;;
6999;SDS011;3540;53.242;10.408;2024-01-30T02:25:45;8.70;;;5.87;;
6999;SDS011;3540;53.242;10.408;2024-01-30T02:28:11;11.33;;;6.20;;
6999;SDS011;3540;53.242;10.408;2024-01-30T02:30:37;11.53;;;6.50;;
6999;SDS011;3540;53.242;10.408;2024-01-30T02:33:09;9.43;;;5.83;;
6999;SDS011;3540;53.242;10.408;2024-01-30T02:35:35;9.30;;;6.00;;
6999;SDS011;3540;53.242;10.408;2024-01-30T02:38:00;9.60;;;6.13;;
6999;SDS011;3540;53.242;10.408;2024-01-30T02:40:26;8.73;;;6.50;;
6999;SDS011;3540;53.242;10.408;2024-01-30T02:42:52;11.53;;;6.73;;
6999;SDS011;3540;53.242;10.408;2024-01-30T02:45:18;10.97;;;6.47;;
6999;SDS011;3540;53.242;10.408;2024-01-30T02:47:43;9.97;;;6.63;;
6999;SDS011;3540;53.242;10.408;2024-01-30T02:50:09;10.37;;;6.60;;
6999;SDS011;3540;53.242;10.408;2024-01-30T02:52:35;11.33;;;7.20;;
6999;SDS011;3540;53.242;10.408;2024-01-30T02:55:01;10.77;;;6.97;;
6999;SDS011;3540;53.242;10.408;2024-01-30T02:57:27;9.27;;;6.13;;
6999;SDS011;3540;53.242;10.408;2024-01-30T02:59:53;8.93;;;6.33;;
6999;SDS011;3540;53.242;10.408;2024-01-30T03:02:18;10.07;;;6.27;;
6999;SDS011;3540;53.242;10.408;2024-01-30T03:04:44;8.80;;;6.23;;
6999;SDS011;3540;53.242;10.408;2024-01-30T03:07:10;10.43;;;6.57;;
6999;SDS011;3540;53.242;10.408;2024-01-30T03:09:36;8.53;;;5.97;;
6999;SDS011;3540;53.242;10.408;2024-01-30T03:12:02;8.87;;;6.20;;
6999;SDS011;3540;53.242;10.408;2024-01-30T03:14:30;9.10;;;6.60;;
6999;SDS011;3540;53.242;10.408;2024-01-30T03:16:56;11.73;;;6.50;;
6999;SDS011;3540;53.242;10.408;2024-01-30T03:19:21;9.03;;;5.87;;
6999;SDS011;3540;53.242;10.408;2024-01-30T03:21:47;10.23;;;7.10;;
6999;SDS011;3540;53.242;10.408;2024-01-30T03:24:12;9.13;;;7.10;;
6999;SDS011;3540;53.242;10.408;2024-01-30T03:26:38;9.27;;;6.50;;
6999;SDS011;3540;53.242;10.408;2024-01-30T03:29:04;13.10;;;7.07;;
6999;SDS011;3540;53.242;10.408;2024-01-30T03:31:29;10.07;;;6.73;;
6999;SDS011;3540;53.242;10.408;2024-01-30T03:33:55;11.30;;;6.90;;
6999;SDS011;3540;53.242;10.408;2024-01-30T03:36:20;9.87;;;6.83;;
6999;SDS011;3540;53.242;10.408;2024-01-30T03:38:46;10.80;;;7.37;;
6999;SDS011;3540;53.242;10.408;2024-01-30T03:41:12;10.53;;;7.43;;
6999;SDS011;3540;53.242;10.408;2024-01-30T03:43:37;11.73;;;7.10;;
6999;SDS011;3540;53.242;10.408;2024-01-30T03:46:03;10.37;;;7.00;;
6999;SDS011;3540;53.242;10.408;2024-01-30T03:48:29;10.87;;;6.83;;
6999;SDS011;3540;53.242;10.408;2024-01-30T03:50:55;12.97;;;7.77;;
6999;SDS011;3540;53.242;10.408;2024-01-30T03:53:21;12.10;;;7.77;;
6999;SDS011;3540;53.242;10.408;2024-01-30T03:55:46;12.27;;;7.93;;
6999;SDS011;3540;53.242;10.408;2024-01-30T03:58:12;10.60;;;7.07;;
6999;SDS011;3540;53.242;10.408;2024-01-30T04:00:41;15.03;;;7.10;;
6999;SDS011;3540;53.242;10.408;2024-01-30T04:03:06;9.60;;;6.90;;
6999;SDS011;3540;53.242;10.408;2024-01-30T04:05:32;9.97;;;6.77;;
6999;SDS011;3540;53.242;10.408;2024-01-30T04:07:58;13.80;;;8.40;;
6999;SDS011;3540;53.242;10.408;2024-01-30T04:10:24;11.67;;;7.40;;
6999;SDS011;3540;53.242;10.408;2024-01-30T04:12:50;13.70;;;7.77;;
6999;SDS011;3540;53.242;10.408;2024-01-30T04:15:16;9.63;;;7.00;;
6999;SDS011;3540;53.242;10.408;2024-01-30T04:17:42;10.47;;;7.07;;
6999;SDS011;3540;53.242;10.408;2024-01-30T04:20:13;13.57;;;8.37;;
6999;SDS011;3540;53.242;10.408;2024-01-30T04:22:39;11.83;;;7.20;;
6999;SDS011;3540;53.242;10.408;2024-01-30T04:25:05;13.33;;;8.00;;
6999;SDS011;3540;53.242;10.408;2024-01-30T04:27:31;11.57;;;7.47;;
6999;SDS011;3540;53.242;10.408;2024-01-30T04:29:57;12.33;;;7.43;;
6999;SDS011;3540;53.242;10.408;2024-01-30T04:32:23;10.90;;;8.10;;
6999;SDS011;3540;53.242;10.408;2024-01-30T04:34:48;13.17;;;7.83;;
6999;SDS011;3540;53.242;10.408;2024-01-30T04:37:14;10.93;;;7.70;;
6999;SDS011;3540;53.242;10.408;2024-01-30T04:39:39;12.93;;;7.40;;
6999;SDS011;3540;53.242;10.408;2024-01-30T04:42:06;9.90;;;7.67;;
6999;SDS011;3540;53.242;10.408;2024-01-30T04:44:31;11.87;;;7.37;;
6999;SDS011;3540;53.242;10.408;2024-01-30T04:46:57;10.03;;;7.57;;
6999;SDS011;3540;53.242;10.408;2024-01-30T04:49:26;13.07;;;8.47;;
6999;SDS011;3540;53.242;10.408;2024-01-30T04:51:52;10.97;;;6.77;;
6999;SDS011;3540;53.242;10.408;2024-01-30T04:54:18;12.60;;;8.17;;
6999;SDS011;3540;53.242;10.408;2024-01-30T04:56:43;10.43;;;7.37;;
6999;SDS011;3540;53.242;10.408;2024-01-30T04:59:09;9.17;;;7.37;;
6999;SDS011;3540;53.242;10.408;2024-01-30T05:01:34;10.50;;;7.33;;
6999;SDS011;3540;53.242;10.408;2024-01-30T05:04:00;11.87;;;7.97;;
6999;SDS011;3540;53.242;10.408;2024-01-30T05:06:26;13.70;;;8.43;;
6999;SDS011;3540;53.242;10.408;2024-01-30T05:08:52;12.50;;;8.83;;
6999;SDS011;3540;53.242;10.408;2024-01-30T05:11:18;13.17;;;9.03;;
6999;SDS011;3540;53.242;10.408;2024-01-30T05:13:43;12.43;;;9.17;;
6999;SDS011;3540;53.242;10.408;2024-01-30T05:16:09;15.07;;;9.23;;
6999;SDS011;3540;53.242;10.408;2024-01-30T05:18:35;14.97;;;9.80;;
6999;SDS011;3540;53.242;10.408;2024-01-30T05:21:01;14.53;;;9.90;;
6999;SDS011;3540;53.242;10.408;2024-01-30T05:23:27;15.20;;;9.17;;
6999;SDS011;3540;53.242;10.408;2024-01-30T05:25:53;13.93;;;9.87;;
6999;SDS011;3540;53.242;10.408;2024-01-30T05:28:19;15.67;;;9.93;;
6999;SDS011;3540;53.242;10.408;2024-01-30T05:30:44;14.70;;;9.70;;
6999;SDS011;3540;53.242;10.408;2024-01-30T05:33:10;14.37;;;9.47;;
6999;SDS011;3540;53.242;10.408;2024-01-30T05:35:37;19.70;;;9.60;;
6999;SDS011;3540;53.242;10.408;2024-01-30T05:38:03;19.97;;;10.37;;
6999;SDS011;3540;53.242;10.408;2024-01-30T05:40:29;13.93;;;9.77;;
6999;SDS011;3540;53.242;10.408;2024-01-30T05:42:55;14.83;;;10.60;;
6999;SDS011;3540;53.242;10.408;2024-01-30T05:45:21;18.40;;;11.30;;
6999;SDS011;3540;53.242;10.408;2024-01-30T05:47:48;18.97;;;11.20;;
6999;SDS011;3540;53.242;10.408;2024-01-30T05:50:13;18.37;;;11.20;;
6999;SDS011;3540;53.242;10.408;2024-01-30T05:52:39;18.00;;;11.13;;
6999;SDS011;3540;53.242;10.408;2024-01-30T05:55:05;18.53;;;10.93;;
6999;SDS011;3540;53.242;10.408;2024-01-30T05:57:31;16.87;;;11.40;;
6999;SDS011;3540;53.242;10.408;2024-01-30T05:59:57;15.03;;;10.80;;
6999;SDS011;3540;53.242;10.408;2024-01-30T06:02:23;15.30;;;10.93;;
6999;SDS011;3540;53.242;10.408;2024-01-30T06:04:48;17.17;;;11.70;;
6999;SDS011;3540;53.242;10.408;2024-01-30T06:07:14;19.93;;;11.63;;
6999;SDS011;3540;53.242;10.408;2024-01-30T06:09:39;16.53;;;11.50;;
6999;SDS011;3540;53.242;10.408;2024-01-30T06:12:06;19.27;;;11.83;;
6999;SDS011;3540;53.242;10.408;2024-01-30T06:14:36;20.50;;;11.83;;
6999;SDS011;3540;53.242;10.408;2024-01-30T06:17:02;17.27;;;12.07;;
6999;SDS011;3540;53.242;10.408;2024-01-30T06:19:28;17.20;;;11.77;;
6999;SDS011;3540;53.242;10.408;2024-01-30T06:21:54;17.70;;;12.10;;
6999;SDS011;3540;53.242;10.408;2024-01-30T06:24:19;18.83;;;11.43;;
6999;SDS011;3540;53.242;10.408;2024-01-30T06:26:45;15.83;;;11.23;;
6999;SDS011;3540;53.242;10.408;2024-01-30T06:29:11;18.17;;;12.40;;
6999;SDS011;3540;53.242;10.408;2024-01-30T06:31:42;18.67;;;11.90;;
6999;SDS011;3540;53.242;10.408;2024-01-30T06:34:08;18.43;;;11.57;;
6999;SDS011;3540;53.242;10.408;2024-01-30T06:36:34;19.70;;;12.60;;
6999;SDS011;3540;53.242;10.408;2024-01-30T06:39:01;16.30;;;12.20;;
6999;SDS011;3540;53.242;10.408;2024-01-30T06:41:27;19.40;;;12.47;;
6999;SDS011;3540;53.242;10.408;2024-01-30T06:43:53;18.63;;;12.77;;
6999;SDS011;3540;53.242;10.408;2024-01-30T06:46:18;18.10;;;12.30;;
6999;SDS011;3540;53.242;10.408;2024-01-30T06:48:44;17.33;;;11.57;;
6999;SDS011;3540;53.242;10.408;2024-01-30T06:51:10;18.17;;;11.90;;
6999;SDS011;3540;53.242;10.408;2024-01-30T06:53:37;19.83;;;11.83;;
6999;SDS011;3540;53.242;10.408;2024-01-30T06:56:03;19.60;;;11.80;;
6999;SDS011;3540;53.242;10.408;2024-01-30T06:58:28;19.03;;;11.60;;
6999;SDS011;3540;53.242;10.408;2024-01-30T07:00:54;18.27;;;12.50;;
6999;SDS011;3540;53.242;10.408;2024-01-30T07:03:20;19.47;;;12.33;;
6999;SDS011;3540;53.242;10.408;2024-01-30T07:05:46;16.90;;;11.83;;
6999;SDS011;3540;53.242;10.408;2024-01-30T07:08:12;16.70;;;11.97;;
6999;SDS011;3540;53.242;10.408;2024-01-30T07:10:38;17.07;;;11.43;;
6999;SDS011;3540;53.242;10.408;2024-01-30T07:13:03;17.97;;;11.47;;
6999;SDS011;3540;53.242;10.408;2024-01-30T07:15:30;20.53;;;11.50;;
6999;SDS011;3540;53.242;10.408;2024-01-30T07:17:56;18.33;;;12.60;;
6999;SDS011;3540;53.242;10.408;2024-01-30T07:20:22;18.43;;;12.07;;
6999;SDS011;3540;53.242;10.408;2024-01-30T07:22:47;20.53;;;12.77;;
6999;SDS011;3540;53.242;10.408;2024-01-30T07:25:13;21.47;;;13.43;;
6999;SDS011;3540;53.242;10.408;2024-01-30T07:27:39;18.60;;;12.87;;
6999;SDS011;3540;53.242;10.408;2024-01-30T07:30:05;21.57;;;12.90;;
6999;SDS011;3540;53.242;10.408;2024-01-30T07:32:31;19.03;;;12.87;;
6999;SDS011;3540;53.242;10.408;2024-01-30T07:34:57;18.07;;;12.50;;
6999;SDS011;3540;53.242;10.408;2024-01-30T07:37:22;20.03;;;12.40;;
6999;SDS011;3540;53.242;10.408;2024-01-30T07:39:48;15.47;;;11.97;;
6999;SDS011;3540;53.242;10.408;2024-01-30T07:42:13;19.97;;;13.43;;
6999;SDS011;3540;53.242;10.408;2024-01-30T07:44:39;17.87;;;12.57;;
6999;SDS011;3540;53.242;10.408;2024-01-30T07:47:05;17.60;;;12.27;;
6999;SDS011;3540;53.242;10.408;2024-01-30T07:49:31;18.67;;;11.87;;
6999;SDS011;3540;53.242;10.408;2024-01-30T07:51:59;20.83;;;12.23;;
6999;SDS011;3540;53.242;10.408;2024-01-30T07:54:25;18.80;;;12.20;;
6999;SDS011;3540;53.242;10.408;2024-01-30T07:56:51;17.33;;;11.83;;
6999;SDS011;3540;53.242;10.408;2024-01-30T07:59:16;16.77;;;11.80;;
6999;SDS011;3540;53.242;10.408;2024-01-30T08:01:43;18.17;;;11.57;;
6999;SDS011;3540;53.242;10.408;2024-01-30T08:04:09;21.10;;;11.70;;
6999;SDS011;3540;53.242;10.408;2024-01-30T08:06:34;17.87;;;11.73;;
6999;SDS011;3540;53.242;10.408;2024-01-30T08:09:00;19.80;;;11.10;;
6999;SDS011;3540;53.242;10.408;2024-01-30T08:11:26;16.00;;;10.97;;
6999;SDS011;3540;53.242;10.408;2024-01-30T08:13:53;18.17;;;11.93;;
6999;SDS011;3540;53.242;10.408;2024-01-30T08:16:19;17.33;;;11.33;;
6999;SDS011;3540;53.242;10.408;2024-01-30T08:18:45;17.20;;;11.37;;
6999;SDS011;3540;53.242;10.408;2024-01-30T08:21:10;15.27;;;10.63;;
6999;SDS011;3540;53.242;10.408;2024-01-30T08:23:37;15.57;;;10.50;;
6999;SDS011;3540;53.242;10.408;2024-01-30T08:26:04;18.50;;;10.57;;
6999;SDS011;3540;53.242;10.408;2024-01-30T08:28:30;15.43;;;10.70;;
6999;SDS011;3540;53.242;10.408;2024-01-30T08:30:55;15.13;;;10.70;;
6999;SDS011;3540;53.242;10.408;2024-01-30T08:33:21;16.70;;;10.23;;
6999;SDS011;3540;53.242;10.408;2024-01-30T08:35:46;15.47;;;10.43;;
6999;SDS011;3540;53.242;10.408;2024-01-30T08:38:12;15.03;;;10.27;;
6999;SDS011;3540;53.242;10.408;2024-01-30T08:40:38;16.77;;;11.17;;
6999;SDS011;3540;53.242;10.408;2024-01-30T08:43:03;18.50;;;11.40;;
6999;SDS011;3540;53.242;10.408;2024-01-30T08:45:29;16.73;;;10.57;;
6999;SDS011;3540;53.242;10.408;2024-01-30T08:47:55;14.27;;;10.33;;
6999;SDS011;3540;53.242;10.408;2024-01-30T08:50:21;16.30;;;10.13;;
6999;SDS011;3540;53.242;10.408;2024-01-30T08:52:47;20.67;;;10.20;;
6999;SDS011;3540;53.242;10.408;2024-01-30T08:55:13;15.07;;;10.43;;
6999;SDS011;3540;53.242;10.408;2024-01-30T08:57:39;15.60;;;10.03;;
6999;SDS011;3540;53.242;10.408;2024-01-30T09:00:04;17.43;;;10.50;;
6999;SDS011;3540;53.242;10.408;2024-01-30T09:02:32;13.33;;;9.37;;
6999;SDS011;3540;53.242;10.408;2024-01-30T09:04:59;13.83;;;10.00;;
6999;SDS011;3540;53.242;10.408;2024-01-30T09:07:24;15.67;;;10.43;;
6999;SDS011;3540;53.242;10.408;2024-01-30T09:09:50;14.43;;;10.17;;
6999;SDS011;3540;53.242;10.408;2024-01-30T09:12:16;11.60;;;9.93;;
6999;SDS011;3540;53.242;10.408;2024-01-30T09:14:41;14.60;;;9.77;;
6999;SDS011;3540;53.242;10.408;2024-01-30T09:17:07;15.90;;;10.20;;
6999;SDS011;3540;53.242;10.408;2024-01-30T09:19:33;17.20;;;10.13;;
6999;SDS011;3540;53.242;10.408;2024-01-30T09:21:59;15.90;;;9.87;;
6999;SDS011;3540;53.242;10.408;2024-01-30T09:24:25;15.10;;;9.67;;
6999;SDS011;3540;53.242;10.408;2024-01-30T09:26:51;12.40;;;9.60;;
6999;SDS011;3540;53.242;10.408;2024-01-30T09:29:17;14.57;;;10.03;;
6999;SDS011;3540;53.242;10.408;2024-01-30T09:31:43;11.87;;;9.03;;
6999;SDS011;3540;53.242;10.408;2024-01-30T09:34:10;13.50;;;9.20;;
6999;SDS011;3540;53.242;10.408;2024-01-30T09:36:35;15.20;;;8.73;;
6999;SDS011;3540;53.242;10.408;2024-01-30T09:39:01;14.90;;;9.27;;
6999;SDS011;3540;53.242;10.408;2024-01-30T09:41:27;13.87;;;9.13;;
6999;SDS011;3540;53.242;10.408;2024-01-30T09:43:54;13.30;;;8.73;;
6999;SDS011;3540;53.242;10.408;2024-01-30T09:46:22;13.47;;;8.80;;
6999;SDS011;3540;53.242;10.408;2024-01-30T09:48:52;10.93;;;8.20;;
6999;SDS011;3540;53.242;10.408;2024-01-30T09:51:20;11.67;;;8.80;;
6999;SDS011;3540;53.242;10.408;2024-01-30T09:53:47;14.03;;;8.33;;
6999;SDS011;3540;53.242;10.408;2024-01-30T09:56:13;13.30;;;8.07;;
6999;SDS011;3540;53.242;10.408;2024-01-30T09:58:39;10.93;;;7.80;;
6999;SDS011;3540;53.242;10.408;2024-01-30T10:01:05;12.57;;;8.27;;
6999;SDS011;3540;53.242;10.408;2024-01-30T10:03:31;17.47;;;8.83;;
6999;SDS011;3540;53.242;10.408;2024-01-30T10:05:57;12.33;;;7.90;;
6999;SDS011;3540;53.242;10.408;2024-01-30T10:08:23;10.07;;;7.97;;
6999;SDS011;3540;53.242;10.408;2024-01-30T10:10:49;13.10;;;8.27;;
6999;SDS011;3540;53.242;10.408;2024-01-30T10:13:15;11.77;;;7.57;;
6999;SDS011;3540;53.242;10.408;2024-01-30T10:15:41;12.47;;;8.00;;
6999;SDS011;3540;53.242;10.408;2024-01-30T10:18:08;13.93;;;8.17;;
6999;SDS011;3540;53.242;10.408;2024-01-30T10:20:35;10.10;;;7.40;;
6999;SDS011;3540;53.242;10.408;2024-01-30T10:23:00;11.70;;;8.00;;
6999;SDS011;3540;53.242;10.408;2024-01-30T10:25:26;12.47;;;7.47;;
6999;SDS011;3540;53.242;10.408;2024-01-30T10:27:55;11.47;;;7.67;;
6999;SDS011;3540;53.242;10.408;2024-01-30T10:30:21;10.47;;;7.63;;
6999;SDS011;3540;53.242;10.408;2024-01-30T10:32:47;12.20;;;7.70;;
6999;SDS011;3540;53.242;10.408;2024-01-30T10:35:14;12.03;;;7.97;;
6999;SDS011;3540;53.242;10.408;2024-01-30T10:37:40;12.53;;;7.23;;
6999;SDS011;3540;53.242;10.408;2024-01-30T10:40:08;10.07;;;6.80;;
6999;SDS011;3540;53.242;10.408;2024-01-30T10:42:37;11.77;;;7.33;;
6999;SDS011;3540;53.242;10.408;2024-01-30T10:45:11;10.73;;;7.17;;
6999;SDS011;3540;53.242;10.408;2024-01-30T10:47:45;9.57;;;6.57;;
6999;SDS011;3540;53.242;10.408;2024-01-30T10:50:15;9.73;;;6.93;;
6999;SDS011;3540;53.242;10.408;2024-01-30T10:52:41;10.83;;;7.07;;
6999;SDS011;3540;53.242;10.408;2024-01-30T10:55:07;10.67;;;7.23;;
6999;SDS011;3540;53.242;10.408;2024-01-30T10:57:36;10.63;;;6.90;;
6999;SDS011;3540;53.242;10.408;2024-01-30T11:00:03;12.43;;;6.73;;
6999;SDS011;3540;53.242;10.408;2024-01-30T11:02:35;9.40;;;6.57;;
6999;SDS011;3540;53.242;10.408;2024-01-30T11:05:04;9.83;;;6.33;;
6999;SDS011;3540;53.242;10.408;2024-01-30T11:07:30;8.80;;;6.00;;
6999;SDS011;3540;53.242;10.408;2024-01-30T11:12:32;13.83;;;8.13;;
6999;SDS011;3540;53.242;10.408;2024-01-30T11:15:16;13.13;;;7.03;;
6999;SDS011;3540;53.242;10.408;2024-01-30T11:17:50;8.20;;;6.43;;
6999;SDS011;3540;53.242;10.408;2024-01-30T11:20:19;8.63;;;6.10;;
6999;SDS011;3540;53.242;10.408;2024-01-30T11:22:52;9.00;;;6.20;;
6999;SDS011;3540;53.242;10.408;2024-01-30T11:25:21;9.57;;;6.40;;
6999;SDS011;3540;53.242;10.408;2024-01-30T11:27:49;8.63;;;6.00;;
6999;SDS011;3540;53.242;10.408;2024-01-30T11:35:56;10.93;;;6.00;;
6999;SDS011;3540;53.242;10.408;2024-01-30T11:38:24;11.27;;;6.43;;
6999;SDS011;3540;53.242;10.408;2024-01-30T11:40:52;9.30;;;5.73;;
6999;SDS011;3540;53.242;10.408;2024-01-30T11:43:19;10.77;;;6.20;;
6999;SDS011;3540;53.242;10.408;2024-01-30T11:45:45;11.07;;;5.60;;
6999;SDS011;3540;53.242;10.408;2024-01-30T11:48:11;10.60;;;6.03;;
6999;SDS011;3540;53.242;10.408;2024-01-30T11:50:38;9.20;;;5.70;;
6999;SDS011;3540;53.242;10.408;2024-01-30T11:53:05;8.80;;;5.97;;
6999;SDS011;3540;53.242;10.408;2024-01-30T11:55:30;10.10;;;5.63;;
6999;SDS011;3540;53.242;10.408;2024-01-30T11:57:57;10.23;;;5.53;;
6999;SDS011;3540;53.242;10.408;2024-01-30T12:00:23;10.90;;;5.80;;
6999;SDS011;3540;53.242;10.408;2024-01-30T12:02:52;7.60;;;5.37;;
6999;SDS011;3540;53.242;10.408;2024-01-30T12:05:22;8.47;;;5.10;;
6999;SDS011;3540;53.242;10.408;2024-01-30T12:07:48;9.17;;;5.80;;
6999;SDS011;3540;53.242;10.408;2024-01-30T12:10:14;8.27;;;5.93;;
6999;SDS011;3540;53.242;10.408;2024-01-30T12:12:45;12.83;;;5.50;;
6999;SDS011;3540;53.242;10.408;2024-01-30T12:15:21;10.93;;;5.60;;
6999;SDS011;3540;53.242;10.408;2024-01-30T12:17:47;11.10;;;5.70;;
6999;SDS011;3540;53.242;10.408;2024-01-30T12:20:14;7.60;;;5.30;;
6999;SDS011;3540;53.242;10.408;2024-01-30T12:22:43;7.73;;;5.07;;
6999;SDS011;3540;53.242;10.408;2024-01-30T12:25:10;7.27;;;5.13;;
6999;SDS011;3540;53.242;10.408;2024-01-30T12:27:38;8.63;;;5.90;;
6999;SDS011;3540;53.242;10.408;2024-01-30T12:30:08;12.17;;;5.70;;
6999;SDS011;3540;53.242;10.408;2024-01-30T12:32:43;8.23;;;5.20;;
6999;SDS011;3540;53.242;10.408;2024-01-30T12:35:12;10.73;;;5.27;;
6999;SDS011;3540;53.242;10.408;2024-01-30T12:37:39;7.67;;;4.93;;
6999;SDS011;3540;53.242;10.408;2024-01-30T12:40:05;8.07;;;5.03;;
6999;SDS011;3540;53.242;10.408;2024-01-30T12:42:35;7.83;;;5.37;;
6999;SDS011;3540;53.242;10.408;2024-01-30T12:45:04;8.23;;;5.40;;
6999;SDS011;3540;53.242;10.408;2024-01-30T12:47:30;8.37;;;5.13;;
6999;SDS011;3540;53.242;10.408;2024-01-30T12:49:56;8.57;;;5.47;;
6999;SDS011;3540;53.242;10.408;2024-01-30T12:52:22;7.97;;;5.53;;
6999;SDS011;3540;53.242;10.408;2024-01-30T12:54:48;8.93;;;5.23;;
6999;SDS011;3540;53.242;10.408;2024-01-30T12:57:14;10.67;;;5.50;;
6999;SDS011;3540;53.242;10.408;2024-01-30T12:59:40;8.37;;;5.80;;
6999;SDS011;3540;53.242;10.408;2024-01-30T13:02:05;8.53;;;6.00;;
6999;SDS011;3540;53.242;10.408;2024-01-30T13:04:32;9.37;;;5.43;;
6999;SDS011;3540;53.242;10.408;2024-01-30T13:06:58;10.57;;;5.70;;
6999;SDS011;3540;53.242;10.408;2024-01-30T13:09:25;9.17;;;5.50;;
6999;SDS011;3540;53.242;10.408;2024-01-30T13:11:51;8.93;;;6.03;;
6999;SDS011;3540;53.242;10.408;2024-01-30T13:14:17;9.57;;;5.33;;
6999;SDS011;3540;53.242;10.408;2024-01-30T13:16:43;10.17;;;5.37;;
6999;SDS011;3540;53.242;10.408;2024-01-30T13:19:09;7.00;;;5.20;;
6999;SDS011;3540;53.242;10.408;2024-01-30T13:21:35;10.30;;;5.30;;
6999;SDS011;3540;53.242;10.408;2024-01-30T13:24:00;9.87;;;5.47;;
6999;SDS011;3540;53.242;10.408;2024-01-30T13:26:26;8.40;;;5.73;;
6999;SDS011;3540;53.242;10.408;2024-01-30T13:28:52;10.40;;;5.70;;
6999;SDS011;3540;53.242;10.408;2024-01-30T13:31:17;12.70;;;5.70;;
6999;SDS011;3540;53.242;10.408;2024-01-30T13:33:44;11.03;;;5.27;;
6999;SDS011;3540;53.242;10.408;2024-01-30T13:36:10;8.53;;;4.93;;
6999;SDS011;3540;53.242;10.408;2024-01-30T13:38:36;9.20;;;5.33;;
6999;SDS011;3540;53.242;10.408;2024-01-30T13:41:03;14.37;;;5.40;;
6999;SDS011;3540;53.242;10.408;2024-01-30T13:43:28;8.87;;;5.77;;
6999;SDS011;3540;53.242;10.408;2024-01-30T13:45:54;6.50;;;5.13;;
6999;SDS011;3540;53.242;10.408;2024-01-30T13:48:20;11.17;;;5.13;;
6999;SDS011;3540;53.242;10.408;2024-01-30T13:50:46;7.50;;;5.10;;
6999;SDS011;3540;53.242;10.408;2024-01-30T13:53:12;8.87;;;5.43;;
6999;SDS011;3540;53.242;10.408;2024-01-30T13:55:38;7.50;;;4.93;;
6999;SDS011;3540;53.242;10.408;2024-01-30T13:58:04;8.50;;;6.00;;
6999;SDS011;3540;53.242;10.408;2024-01-30T14:00:30;12.17;;;5.20;;
6999;SDS011;3540;53.242;10.408;2024-01-30T14:02:56;8.80;;;5.47;;
6999;SDS011;3540;53.242;10.408;2024-01-30T14:05:24;12.07;;;5.77;;
6999;SDS011;3540;53.242;10.408;2024-01-30T14:07:50;6.90;;;5.10;;
6999;SDS011;3540;53.242;10.408;2024-01-30T14:10:16;15.43;;;5.30;;
6999;SDS011;3540;53.242;10.408;2024-01-30T14:12:43;9.93;;;5.00;;
6999;SDS011;3540;53.242;10.408;2024-01-30T14:15:09;8.60;;;5.40;;
6999;SDS011;3540;53.242;10.408;2024-01-30T14:17:36;9.63;;;5.43;;
6999;SDS011;3540;53.242;10.408;2024-01-30T14:20:05;8.13;;;5.10;;
6999;SDS011;3540;53.242;10.408;2024-01-30T14:22:32;7.97;;;5.07;;
6999;SDS011;3540;53.242;10.408;2024-01-30T14:24:58;8.90;;;5.03;;
6999;SDS011;3540;53.242;10.408;2024-01-30T14:27:24;9.07;;;5.53;;
6999;SDS011;3540;53.242;10.408;2024-01-30T14:29:50;9.37;;;5.40;;
6999;SDS011;3540;53.242;10.408;2024-01-30T14:32:15;10.80;;;6.40;;
6999;SDS011;3540;53.242;10.408;2024-01-30T14:34:41;9.13;;;5.30;;
6999;SDS011;3540;53.242;10.408;2024-01-30T14:37:07;9.63;;;5.60;;
6999;SDS011;3540;53.242;10.408;2024-01-30T14:39:32;12.10;;;6.30;;
6999;SDS011;3540;53.242;10.408;2024-01-30T14:41:58;12.87;;;5.80;;
6999;SDS011;3540;53.242;10.408;2024-01-30T14:44:24;10.47;;;5.70;;
6999;SDS011;3540;53.242;10.408;2024-01-30T14:46:50;9.93;;;5.80;;
6999;SDS011;3540;53.242;10.408;2024-01-30T14:49:16;10.73;;;6.03;;
6999;SDS011;3540;53.242;10.408;2024-01-30T14:51:42;8.93;;;5.57;;